S73 Hermelin — DRCG — position and weather

sailwx.info

Track history (hours):
 
Tides and Currents Weather Stations Pressure Air Temp Water Temp Dewpoint Dewpoint Depression Visibility Wind Speed Wind Dir Waves Ship Positions

S73 Hermelin

Last reported at 2015-May-01 10:29 UTC. Time now 2015-May-04 20:06 UTC.
Position N 50°48' W 001°07'.

Length 58 m.

Type: Military. MMSI: 211210610.

Date/timePositionNaut miles runAvg speedWind from/ knotsBaromVisibWave heightAir tempDewpointWater temp
2015-May-01 10:29N 50°48' W 001°07'0 0.3
2015-May-01 09:33N 50°48' W 001°07'3 3.0
2015-May-01 08:34N 50°46' W 001°10'2 2.0
2015-May-01 07:34N 50°45' W 001°07'2 2.1
2015-May-01 06:34N 50°44' W 001°04'2 2.1
2015-May-01 05:34N 50°45' W 001°07'0 0.3
2015-May-01 04:33N 50°45' W 001°07'0 0.1
2015-May-01 03:33N 50°45' W 001°07'0 0.0
2015-May-01 02:33N 50°45' W 001°07'0 0.0
2015-May-01 01:30N 50°45' W 001°07'0 0.0
2015-May-01 00:33N 50°45' W 001°07'0 0.0
2015-Apr-30 23:33N 50°45' W 001°07'0 0.0
2015-Apr-30 22:33N 50°45' W 001°07'0 0.0
2015-Apr-30 21:33N 50°45' W 001°07'3 2.7
2015-Apr-30 20:33N 50°44' W 001°03'1110.2
2015-Apr-30 19:31N 50°34' W 000°60'6 2.9
2015-Apr-30 17:21N 50°32' W 001°09'4122.8
2015-Apr-30 15:33N 50°24' W 002°13'3833.5
2015-Apr-30 14:24N 50°10' W 003°08'41 7.1
2015-Apr-30 08:34N 50°21' W 004°10'2 1.7
2015-Apr-30 07:33N 50°23' W 004°11'0 0.0
2015-Apr-30 06:27N 50°23' W 004°11'0 0.0
2015-Apr-30 05:30N 50°23' W 004°11'0 0.0
2015-Apr-30 04:33N 50°23' W 004°11'0 0.0
2015-Apr-30 03:27N 50°23' W 004°11'0 0.0
2015-Apr-30 02:27N 50°23' W 004°11'0 0.0
2015-Apr-30 01:33N 50°23' W 004°11'0 0.0
2015-Apr-30 00:30N 50°23' W 004°11'0 0.0
2015-Apr-29 23:30N 50°23' W 004°11'0 0.0
2015-Apr-29 22:30N 50°23' W 004°11'0 0.0
2015-Apr-29 21:33N 50°23' W 004°11'0 0.0
2015-Apr-29 20:30N 50°23' W 004°11'0 0.0
2015-Apr-29 19:33N 50°23' W 004°11'0 0.0
2015-Apr-29 18:33N 50°23' W 004°11'0 0.0
2015-Apr-29 17:34N 50°23' W 004°11'3 2.8
2015-Apr-29 16:33N 50°20' W 004°09'2316.6
2015-Apr-29 15:09N 50°13' W 003°34'1220.7
2015-Apr-29 14:34N 50°25' W 003°30'1 0.9
2015-Apr-29 13:33N 50°25' W 003°31'4 4.2
2015-Apr-29 12:34N 50°26' W 003°25'1212.3
2015-Apr-29 11:33N 50°28' W 003°06'2612.7
2015-Apr-29 09:28N 50°32' W 002°24'5 0.3
2015-Apr-28 14:10N 50°35' W 002°18'3 4.7
2015-Apr-28 13:33N 50°32' W 002°19'2 1.4
2015-Apr-28 12:12N 50°34' W 002°17'3918.5
2015-Apr-28 10:06N 50°08' W 003°02'1318.5
2015-Apr-28 09:25N 50°04' W 003°21'3515.2
2015-Apr-28 07:08N 50°19' W 004°10'1 1.6
2015-Apr-28 06:31N 50°20' W 004°11'0 0.0
2015-Apr-28 05:11N 50°20' W 004°11'0 0.0
2015-Apr-28 04:31N 50°20' W 004°11'0 0.0
2015-Apr-28 03:31N 50°20' W 004°11'0 0.0
2015-Apr-28 02:31N 50°20' W 004°11'0 0.0
2015-Apr-28 01:28N 50°20' W 004°11'0 0.0
2015-Apr-28 00:24N 50°20' W 004°11'0 0.0
2015-Apr-27 23:31N 50°20' W 004°11'0 0.0
2015-Apr-27 22:28N 50°20' W 004°11'16216.3
2015-Apr-27 12:34N 51°35' W 007°59'1312.5
2015-Apr-27 11:33N 51°43' W 008°14'8 7.8
2015-Apr-27 10:33N 51°51' W 008°18'7 6.6
2015-Apr-27 09:33N 51°54' W 008°27'0 0.0
2015-Apr-27 08:33N 51°54' W 008°27'0 0.0
2015-Apr-27 07:30N 51°54' W 008°27'0 0.0
2015-Apr-27 06:30N 51°54' W 008°27'0 0.0
2015-Apr-27 05:33N 51°54' W 008°27'0 0.0
2015-Apr-27 04:33N 51°54' W 008°27'0 0.0
2015-Apr-27 03:33N 51°54' W 008°27'0 0.0
2015-Apr-27 02:33N 51°54' W 008°27'0 0.0
2015-Apr-27 01:33N 51°54' W 008°27'0 0.0
2015-Apr-27 00:33N 51°54' W 008°27'0 0.0
2015-Apr-26 23:33N 51°54' W 008°27'0 0.0
2015-Apr-26 22:33N 51°54' W 008°27'0 0.0
2015-Apr-26 21:33N 51°54' W 008°27'0 0.0
2015-Apr-26 20:33N 51°54' W 008°27'0 0.0
2015-Apr-26 19:33N 51°54' W 008°27'0 0.0
2015-Apr-26 18:33N 51°54' W 008°27'0 0.0
2015-Apr-26 17:33N 51°54' W 008°27'0 0.0
2015-Apr-26 16:33N 51°54' W 008°27'0 0.0
2015-Apr-26 15:33N 51°54' W 008°27'0 0.0
2015-Apr-26 14:33N 51°54' W 008°27'0 0.0
2015-Apr-26 13:30N 51°54' W 008°27'0 0.0
2015-Apr-26 12:33N 51°54' W 008°27'0 0.0
2015-Apr-26 11:33N 51°54' W 008°27'0 0.0
2015-Apr-26 10:33N 51°54' W 008°27'0 0.0
2015-Apr-26 09:33N 51°54' W 008°27'0 0.0
2015-Apr-26 08:33N 51°54' W 008°27'0 0.0
2015-Apr-26 07:33N 51°54' W 008°27'0 0.0
2015-Apr-26 06:33N 51°54' W 008°27'0 0.0
2015-Apr-26 05:33N 51°54' W 008°27'0 0.0
2015-Apr-26 04:33N 51°54' W 008°27'0 0.0
2015-Apr-26 03:33N 51°54' W 008°27'0 0.0
2015-Apr-26 02:30N 51°54' W 008°27'0 0.0
2015-Apr-26 01:33N 51°54' W 008°27'0 0.0
2015-Apr-26 00:30N 51°54' W 008°27'0 0.0
2015-Apr-25 23:33N 51°54' W 008°27'0 0.0
2015-Apr-25 22:33N 51°54' W 008°27'0 0.0
2015-Apr-25 21:33N 51°54' W 008°27'0 0.0
2015-Apr-25 20:33N 51°54' W 008°27'0 0.0
2015-Apr-25 19:33N 51°54' W 008°27'0 0.0
2015-Apr-25 18:33N 51°54' W 008°27'0 0.0
2015-Apr-25 17:30N 51°54' W 008°27'0 0.0
2015-Apr-25 16:27N 51°54' W 008°27'0 0.0
2015-Apr-25 15:33N 51°54' W 008°27'0 0.0
2015-Apr-25 14:33N 51°54' W 008°27'0 0.0
2015-Apr-25 13:30N 51°54' W 008°27'0 0.0
2015-Apr-25 12:33N 51°54' W 008°27'0 0.0
2015-Apr-25 11:33N 51°54' W 008°27'0 0.0
2015-Apr-25 10:33N 51°54' W 008°27'0 0.0
2015-Apr-25 09:33N 51°54' W 008°27'0 0.0
2015-Apr-25 08:33N 51°54' W 008°27'0 0.0
2015-Apr-25 07:33N 51°54' W 008°27'0 0.0
2015-Apr-25 06:33N 51°54' W 008°27'0 0.0
2015-Apr-25 05:33N 51°54' W 008°27'0 0.0
2015-Apr-25 04:33N 51°54' W 008°27'0 0.0
2015-Apr-25 03:33N 51°54' W 008°27'0 0.0
2015-Apr-25 02:30N 51°54' W 008°27'0 0.0
2015-Apr-25 01:33N 51°54' W 008°27'0 0.0
2015-Apr-25 00:33N 51°54' W 008°27'0 0.0
2015-Apr-24 23:33N 51°54' W 008°27'0 0.0
2015-Apr-24 22:33N 51°54' W 008°27'0 0.0
2015-Apr-24 21:30N 51°54' W 008°27'0 0.0
2015-Apr-24 20:33N 51°54' W 008°27'0 0.0
2015-Apr-24 19:33N 51°54' W 008°27'0 0.0
2015-Apr-24 18:33N 51°54' W 008°27'0 0.0
2015-Apr-24 17:33N 51°54' W 008°27'0 0.0
2015-Apr-24 16:33N 51°54' W 008°27'34 2.6
2015-Apr-24 03:13N 51°54' W 007°32'911.8
2015-Apr-24 02:25N 51°56' W 007°17'1011.1
2015-Apr-24 01:33N 51°58' W 007°02'10 9.9
2015-Apr-24 00:32N 52°02' W 006°47'33 7.5
2015-Apr-23 20:08N 52°19' W 006°01'12211.5
2015-Apr-23 09:33N 54°18' W 005°15'1615.7
2015-Apr-23 08:34N 54°33' W 005°18'1515.2
2015-Apr-23 07:33N 54°48' W 005°21'1513.6
2015-Apr-23 06:30N 55°03' W 005°21'  
Track history (hours):
 
Tides and Currents Weather Stations Pressure Air Temp Water Temp Dewpoint Dewpoint Depression Visibility Wind Speed Wind Dir Waves Ship Positions

S73 Hermelin

Last reported at 2015-May-01 10:29 UTC. Time now 2015-May-04 20:06 UTC.
Position N 50°48' W 001°07'.

Length 58 m.

Type: Military. MMSI: 211210610.

Date/timePositionNaut miles runAvg speedWind from/ knotsBaromVisibWave heightAir tempDewpointWater temp
2015-May-01 10:29N 50°48' W 001°07'0 0.3
2015-May-01 09:33N 50°48' W 001°07'3 3.0
2015-May-01 08:34N 50°46' W 001°10'2 2.0
2015-May-01 07:34N 50°45' W 001°07'2 2.1
2015-May-01 06:34N 50°44' W 001°04'2 2.1
2015-May-01 05:34N 50°45' W 001°07'0 0.3
2015-May-01 04:33N 50°45' W 001°07'0 0.1
2015-May-01 03:33N 50°45' W 001°07'0 0.0
2015-May-01 02:33N 50°45' W 001°07'0 0.0
2015-May-01 01:30N 50°45' W 001°07'0 0.0
2015-May-01 00:33N 50°45' W 001°07'0 0.0
2015-Apr-30 23:33N 50°45' W 001°07'0 0.0
2015-Apr-30 22:33N 50°45' W 001°07'0 0.0
2015-Apr-30 21:33N 50°45' W 001°07'3 2.7
2015-Apr-30 20:33N 50°44' W 001°03'1110.2
2015-Apr-30 19:31N 50°34' W 000°60'6 2.9
2015-Apr-30 17:21N 50°32' W 001°09'4122.8
2015-Apr-30 15:33N 50°24' W 002°13'3833.5
2015-Apr-30 14:24N 50°10' W 003°08'41 7.1
2015-Apr-30 08:34N 50°21' W 004°10'2 1.7
2015-Apr-30 07:33N 50°23' W 004°11'0 0.0
2015-Apr-30 06:27N 50°23' W 004°11'0 0.0
2015-Apr-30 05:30N 50°23' W 004°11'0 0.0
2015-Apr-30 04:33N 50°23' W 004°11'0 0.0
2015-Apr-30 03:27N 50°23' W 004°11'0 0.0
2015-Apr-30 02:27N 50°23' W 004°11'0 0.0
2015-Apr-30 01:33N 50°23' W 004°11'0 0.0
2015-Apr-30 00:30N 50°23' W 004°11'0 0.0
2015-Apr-29 23:30N 50°23' W 004°11'0 0.0
2015-Apr-29 22:30N 50°23' W 004°11'0 0.0
2015-Apr-29 21:33N 50°23' W 004°11'0 0.0
2015-Apr-29 20:30N 50°23' W 004°11'0 0.0
2015-Apr-29 19:33N 50°23' W 004°11'0 0.0
2015-Apr-29 18:33N 50°23' W 004°11'0 0.0
2015-Apr-29 17:34N 50°23' W 004°11'3 2.8
2015-Apr-29 16:33N 50°20' W 004°09'2316.6
2015-Apr-29 15:09N 50°13' W 003°34'1220.7
2015-Apr-29 14:34N 50°25' W 003°30'1 0.9
2015-Apr-29 13:33N 50°25' W 003°31'4 4.2
2015-Apr-29 12:34N 50°26' W 003°25'1212.3
2015-Apr-29 11:33N 50°28' W 003°06'2612.7
2015-Apr-29 09:28N 50°32' W 002°24'5 0.3
2015-Apr-28 14:10N 50°35' W 002°18'3 4.7
2015-Apr-28 13:33N 50°32' W 002°19'2 1.4
2015-Apr-28 12:12N 50°34' W 002°17'3918.5
2015-Apr-28 10:06N 50°08' W 003°02'1318.5
2015-Apr-28 09:25N 50°04' W 003°21'3515.2
2015-Apr-28 07:08N 50°19' W 004°10'1 1.6
2015-Apr-28 06:31N 50°20' W 004°11'0 0.0
2015-Apr-28 05:11N 50°20' W 004°11'0 0.0
2015-Apr-28 04:31N 50°20' W 004°11'0 0.0
2015-Apr-28 03:31N 50°20' W 004°11'0 0.0
2015-Apr-28 02:31N 50°20' W 004°11'0 0.0
2015-Apr-28 01:28N 50°20' W 004°11'0 0.0
2015-Apr-28 00:24N 50°20' W 004°11'0 0.0
2015-Apr-27 23:31N 50°20' W 004°11'0 0.0
2015-Apr-27 22:28N 50°20' W 004°11'16216.3
2015-Apr-27 12:34N 51°35' W 007°59'1312.5
2015-Apr-27 11:33N 51°43' W 008°14'8 7.8
2015-Apr-27 10:33N 51°51' W 008°18'7 6.6
2015-Apr-27 09:33N 51°54' W 008°27'0 0.0
2015-Apr-27 08:33N 51°54' W 008°27'0 0.0
2015-Apr-27 07:30N 51°54' W 008°27'0 0.0
2015-Apr-27 06:30N 51°54' W 008°27'0 0.0
2015-Apr-27 05:33N 51°54' W 008°27'0 0.0
2015-Apr-27 04:33N 51°54' W 008°27'0 0.0
2015-Apr-27 03:33N 51°54' W 008°27'0 0.0
2015-Apr-27 02:33N 51°54' W 008°27'0 0.0
2015-Apr-27 01:33N 51°54' W 008°27'0 0.0
2015-Apr-27 00:33N 51°54' W 008°27'0 0.0
2015-Apr-26 23:33N 51°54' W 008°27'0 0.0
2015-Apr-26 22:33N 51°54' W 008°27'0 0.0
2015-Apr-26 21:33N 51°54' W 008°27'0 0.0
2015-Apr-26 20:33N 51°54' W 008°27'0 0.0
2015-Apr-26 19:33N 51°54' W 008°27'0 0.0
2015-Apr-26 18:33N 51°54' W 008°27'0 0.0
2015-Apr-26 17:33N 51°54' W 008°27'0 0.0
2015-Apr-26 16:33N 51°54' W 008°27'0 0.0
2015-Apr-26 15:33N 51°54' W 008°27'0 0.0
2015-Apr-26 14:33N 51°54' W 008°27'0 0.0
2015-Apr-26 13:30N 51°54' W 008°27'0 0.0
2015-Apr-26 12:33N 51°54' W 008°27'0 0.0
2015-Apr-26 11:33N 51°54' W 008°27'0 0.0
2015-Apr-26 10:33N 51°54' W 008°27'0 0.0
2015-Apr-26 09:33N 51°54' W 008°27'0 0.0
2015-Apr-26 08:33N 51°54' W 008°27'0 0.0
2015-Apr-26 07:33N 51°54' W 008°27'0 0.0
2015-Apr-26 06:33N 51°54' W 008°27'0 0.0
2015-Apr-26 05:33N 51°54' W 008°27'0 0.0
2015-Apr-26 04:33N 51°54' W 008°27'0 0.0
2015-Apr-26 03:33N 51°54' W 008°27'0 0.0
2015-Apr-26 02:30N 51°54' W 008°27'0 0.0
2015-Apr-26 01:33N 51°54' W 008°27'0 0.0
2015-Apr-26 00:30N 51°54' W 008°27'0 0.0
2015-Apr-25 23:33N 51°54' W 008°27'0 0.0
2015-Apr-25 22:33N 51°54' W 008°27'0 0.0
2015-Apr-25 21:33N 51°54' W 008°27'0 0.0
2015-Apr-25 20:33N 51°54' W 008°27'0 0.0
2015-Apr-25 19:33N 51°54' W 008°27'0 0.0
2015-Apr-25 18:33N 51°54' W 008°27'0 0.0
2015-Apr-25 17:30N 51°54' W 008°27'0 0.0
2015-Apr-25 16:27N 51°54' W 008°27'0 0.0
2015-Apr-25 15:33N 51°54' W 008°27'0 0.0
2015-Apr-25 14:33N 51°54' W 008°27'0 0.0
2015-Apr-25 13:30N 51°54' W 008°27'0 0.0
2015-Apr-25 12:33N 51°54' W 008°27'0 0.0
2015-Apr-25 11:33N 51°54' W 008°27'0 0.0
2015-Apr-25 10:33N 51°54' W 008°27'0 0.0
2015-Apr-25 09:33N 51°54' W 008°27'0 0.0
2015-Apr-25 08:33N 51°54' W 008°27'0 0.0
2015-Apr-25 07:33N 51°54' W 008°27'0 0.0
2015-Apr-25 06:33N 51°54' W 008°27'0 0.0
2015-Apr-25 05:33N 51°54' W 008°27'0 0.0
2015-Apr-25 04:33N 51°54' W 008°27'0 0.0
2015-Apr-25 03:33N 51°54' W 008°27'0 0.0
2015-Apr-25 02:30N 51°54' W 008°27'0 0.0
2015-Apr-25 01:33N 51°54' W 008°27'0 0.0
2015-Apr-25 00:33N 51°54' W 008°27'0 0.0
2015-Apr-24 23:33N 51°54' W 008°27'0 0.0
2015-Apr-24 22:33N 51°54' W 008°27'0 0.0
2015-Apr-24 21:30N 51°54' W 008°27'0 0.0
2015-Apr-24 20:33N 51°54' W 008°27'0 0.0
2015-Apr-24 19:33N 51°54' W 008°27'0 0.0
2015-Apr-24 18:33N 51°54' W 008°27'0 0.0
2015-Apr-24 17:33N 51°54' W 008°27'0 0.0
2015-Apr-24 16:33N 51°54' W 008°27'34 2.6
2015-Apr-24 03:13N 51°54' W 007°32'911.8
2015-Apr-24 02:25N 51°56' W 007°17'1011.1
2015-Apr-24 01:33N 51°58' W 007°02'10 9.9
2015-Apr-24 00:32N 52°02' W 006°47'33 7.5
2015-Apr-23 20:08N 52°19' W 006°01'12211.5
2015-Apr-23 09:33N 54°18' W 005°15'1615.7
2015-Apr-23 08:34N 54°33' W 005°18'1515.2
2015-Apr-23 07:33N 54°48' W 005°21'1513.6
2015-Apr-23 06:30N 55°03' W 005°21'  

Dump ship's entire track history